sensor_id;sensor_type;location;lat;lon;timestamp;temperature;humidity
81202;DHT22;71068;47.662;-2.750;2023-07-09T00:02:23;22.20;77.90
81202;DHT22;71068;47.662;-2.750;2023-07-09T00:04:51;22.10;77.90
81202;DHT22;71068;47.662;-2.750;2023-07-09T00:07:30;22.10;78.10
81202;DHT22;71068;47.662;-2.750;2023-07-09T00:09:58;22.10;77.90
81202;DHT22;71068;47.662;-2.750;2023-07-09T00:12:27;22.10;78.70
81202;DHT22;71068;47.662;-2.750;2023-07-09T00:14:54;22.00;79.60
81202;DHT22;71068;47.662;-2.750;2023-07-09T00:17:30;22.10;78.70
81202;DHT22;71068;47.662;-2.750;2023-07-09T00:20:00;22.10;79.40
81202;DHT22;71068;47.662;-2.750;2023-07-09T00:22:28;22.00;79.00
81202;DHT22;71068;47.662;-2.750;2023-07-09T00:24:55;22.10;78.60
81202;DHT22;71068;47.662;-2.750;2023-07-09T00:27:27;22.10;79.10
81202;DHT22;71068;47.662;-2.750;2023-07-09T00:29:55;22.10;78.90
81202;DHT22;71068;47.662;-2.750;2023-07-09T00:32:21;22.00;78.80
81202;DHT22;71068;47.662;-2.750;2023-07-09T00:34:50;22.00;78.60
81202;DHT22;71068;47.662;-2.750;2023-07-09T00:37:20;22.00;79.70
81202;DHT22;71068;47.662;-2.750;2023-07-09T00:39:48;21.90;79.30
81202;DHT22;71068;47.662;-2.750;2023-07-09T00:42:21;21.90;79.30
81202;DHT22;71068;47.662;-2.750;2023-07-09T00:44:54;22.00;79.00
81202;DHT22;71068;47.662;-2.750;2023-07-09T00:53:29;22.00;79.90
81202;DHT22;71068;47.662;-2.750;2023-07-09T00:56:04;21.90;79.70
81202;DHT22;71068;47.662;-2.750;2023-07-09T00:58:35;21.90;80.10
81202;DHT22;71068;47.662;-2.750;2023-07-09T01:01:08;21.90;80.10
81202;DHT22;71068;47.662;-2.750;2023-07-09T01:03:40;21.90;80.20
81202;DHT22;71068;47.662;-2.750;2023-07-09T01:06:09;21.80;81.20
81202;DHT22;71068;47.662;-2.750;2023-07-09T01:08:39;21.60;81.50
81202;DHT22;71068;47.662;-2.750;2023-07-09T01:11:19;21.70;81.10
81202;DHT22;71068;47.662;-2.750;2023-07-09T01:13:53;21.80;80.80
81202;DHT22;71068;47.662;-2.750;2023-07-09T01:16:22;21.80;80.50
81202;DHT22;71068;47.662;-2.750;2023-07-09T01:18:50;21.80;81.30
81202;DHT22;71068;47.662;-2.750;2023-07-09T01:21:16;21.70;80.80
81202;DHT22;71068;47.662;-2.750;2023-07-09T01:23:44;21.70;80.60
81202;DHT22;71068;47.662;-2.750;2023-07-09T01:26:13;21.60;81.90
81202;DHT22;71068;47.662;-2.750;2023-07-09T01:28:40;21.70;81.70
81202;DHT22;71068;47.662;-2.750;2023-07-09T01:31:16;21.60;81.80
81202;DHT22;71068;47.662;-2.750;2023-07-09T01:33:43;21.50;81.50
81202;DHT22;71068;47.662;-2.750;2023-07-09T01:36:12;21.60;81.40
81202;DHT22;71068;47.662;-2.750;2023-07-09T01:38:41;21.50;81.70
81202;DHT22;71068;47.662;-2.750;2023-07-09T01:41:08;21.50;81.90
81202;DHT22;71068;47.662;-2.750;2023-07-09T01:43:39;21.50;81.50
81202;DHT22;71068;47.662;-2.750;2023-07-09T01:46:09;21.50;81.40
81202;DHT22;71068;47.662;-2.750;2023-07-09T01:48:39;21.50;81.70
81202;DHT22;71068;47.662;-2.750;2023-07-09T01:51:12;21.50;81.90
81202;DHT22;71068;47.662;-2.750;2023-07-09T01:53:42;21.50;81.30
81202;DHT22;71068;47.662;-2.750;2023-07-09T01:56:11;21.60;81.30
81202;DHT22;71068;47.662;-2.750;2023-07-09T01:58:38;21.60;80.80
81202;DHT22;71068;47.662;-2.750;2023-07-09T02:01:07;21.60;80.80
81202;DHT22;71068;47.662;-2.750;2023-07-09T02:03:33;21.70;80.90
81202;DHT22;71068;47.662;-2.750;2023-07-09T02:06:02;21.70;81.80
81202;DHT22;71068;47.662;-2.750;2023-07-09T02:08:35;21.60;81.20
81202;DHT22;71068;47.662;-2.750;2023-07-09T02:11:02;21.60;80.90
81202;DHT22;71068;47.662;-2.750;2023-07-09T02:13:31;21.70;81.30
81202;DHT22;71068;47.662;-2.750;2023-07-09T02:15:59;21.70;80.70
81202;DHT22;71068;47.662;-2.750;2023-07-09T02:18:27;21.80;80.40
81202;DHT22;71068;47.662;-2.750;2023-07-09T02:20:55;21.80;80.40
81202;DHT22;71068;47.662;-2.750;2023-07-09T02:23:26;21.80;81.20
81202;DHT22;71068;47.662;-2.750;2023-07-09T02:25:53;21.90;80.50
81202;DHT22;71068;47.662;-2.750;2023-07-09T02:28:19;21.90;80.30
81202;DHT22;71068;47.662;-2.750;2023-07-09T02:30:45;21.80;81.20
81202;DHT22;71068;47.662;-2.750;2023-07-09T02:33:12;21.90;81.10
81202;DHT22;71068;47.662;-2.750;2023-07-09T02:35:38;21.90;80.50
81202;DHT22;71068;47.662;-2.750;2023-07-09T02:38:04;21.90;80.20
81202;DHT22;71068;47.662;-2.750;2023-07-09T02:40:31;21.80;81.30
81202;DHT22;71068;47.662;-2.750;2023-07-09T02:42:59;21.70;81.00
81202;DHT22;71068;47.662;-2.750;2023-07-09T02:45:26;21.80;80.70
81202;DHT22;71068;47.662;-2.750;2023-07-09T02:47:54;21.80;80.80
81202;DHT22;71068;47.662;-2.750;2023-07-09T02:50:20;21.80;80.60
81202;DHT22;71068;47.662;-2.750;2023-07-09T02:52:46;21.80;80.80
81202;DHT22;71068;47.662;-2.750;2023-07-09T02:55:13;21.80;81.20
81202;DHT22;71068;47.662;-2.750;2023-07-09T02:57:40;21.70;80.50
81202;DHT22;71068;47.662;-2.750;2023-07-09T03:00:07;21.70;80.80
81202;DHT22;71068;47.662;-2.750;2023-07-09T03:02:33;21.60;81.00
81202;DHT22;71068;47.662;-2.750;2023-07-09T03:05:00;21.60;80.40
81202;DHT22;71068;47.662;-2.750;2023-07-09T03:07:26;21.60;80.90
81202;DHT22;71068;47.662;-2.750;2023-07-09T03:09:52;21.70;80.50
81202;DHT22;71068;47.662;-2.750;2023-07-09T03:12:18;21.70;80.50
81202;DHT22;71068;47.662;-2.750;2023-07-09T03:14:51;21.60;81.30
81202;DHT22;71068;47.662;-2.750;2023-07-09T03:17:18;21.60;81.30
81202;DHT22;71068;47.662;-2.750;2023-07-09T03:19:44;21.50;81.70
81202;DHT22;71068;47.662;-2.750;2023-07-09T03:22:10;21.50;82.00
81202;DHT22;71068;47.662;-2.750;2023-07-09T03:24:35;21.50;81.40
81202;DHT22;71068;47.662;-2.750;2023-07-09T03:27:01;21.50;81.00
81202;DHT22;71068;47.662;-2.750;2023-07-09T03:29:29;21.50;81.70
81202;DHT22;71068;47.662;-2.750;2023-07-09T03:31:54;21.60;81.30
81202;DHT22;71068;47.662;-2.750;2023-07-09T03:34:20;21.50;82.10
81202;DHT22;71068;47.662;-2.750;2023-07-09T03:36:47;21.50;82.00
81202;DHT22;71068;47.662;-2.750;2023-07-09T03:39:13;21.50;81.40
81202;DHT22;71068;47.662;-2.750;2023-07-09T03:41:39;21.60;81.10
81202;DHT22;71068;47.662;-2.750;2023-07-09T03:44:05;21.70;81.90
81202;DHT22;71068;47.662;-2.750;2023-07-09T03:46:31;21.50;82.10
81202;DHT22;71068;47.662;-2.750;2023-07-09T03:48:59;21.60;81.20
81202;DHT22;71068;47.662;-2.750;2023-07-09T03:51:25;21.60;82.50
81202;DHT22;71068;47.662;-2.750;2023-07-09T03:53:51;21.60;82.20
81202;DHT22;71068;47.662;-2.750;2023-07-09T03:56:17;21.60;82.40
81202;DHT22;71068;47.662;-2.750;2023-07-09T03:58:43;21.60;82.50
81202;DHT22;71068;47.662;-2.750;2023-07-09T04:01:09;21.50;82.70
81202;DHT22;71068;47.662;-2.750;2023-07-09T04:03:35;21.50;82.20
81202;DHT22;71068;47.662;-2.750;2023-07-09T04:06:01;21.60;81.60
81202;DHT22;71068;47.662;-2.750;2023-07-09T04:08:28;21.60;82.20
81202;DHT22;71068;47.662;-2.750;2023-07-09T04:10:58;21.60;83.40
81202;DHT22;71068;47.662;-2.750;2023-07-09T04:13:26;21.70;83.30
81202;DHT22;71068;47.662;-2.750;2023-07-09T04:15:56;21.60;83.50
81202;DHT22;71068;47.662;-2.750;2023-07-09T04:18:23;21.70;83.10
81202;DHT22;71068;47.662;-2.750;2023-07-09T04:20:50;21.70;82.50
81202;DHT22;71068;47.662;-2.750;2023-07-09T04:23:18;21.70;82.50
81202;DHT22;71068;47.662;-2.750;2023-07-09T04:25:44;21.70;82.50
81202;DHT22;71068;47.662;-2.750;2023-07-09T04:28:10;21.70;82.10
81202;DHT22;71068;47.662;-2.750;2023-07-09T04:30:37;21.80;82.20
81202;DHT22;71068;47.662;-2.750;2023-07-09T04:33:05;21.70;82.90
81202;DHT22;71068;47.662;-2.750;2023-07-09T04:35:31;21.60;82.30
81202;DHT22;71068;47.662;-2.750;2023-07-09T04:37:57;21.60;82.40
81202;DHT22;71068;47.662;-2.750;2023-07-09T04:40:24;21.70;82.20
81202;DHT22;71068;47.662;-2.750;2023-07-09T04:42:51;21.70;82.40
81202;DHT22;71068;47.662;-2.750;2023-07-09T04:45:18;21.60;82.20
81202;DHT22;71068;47.662;-2.750;2023-07-09T04:47:43;21.60;82.10
81202;DHT22;71068;47.662;-2.750;2023-07-09T04:50:10;21.60;81.80
81202;DHT22;71068;47.662;-2.750;2023-07-09T04:52:37;21.50;81.90
81202;DHT22;71068;47.662;-2.750;2023-07-09T04:55:03;21.40;82.10
81202;DHT22;71068;47.662;-2.750;2023-07-09T04:57:29;21.40;82.10
81202;DHT22;71068;47.662;-2.750;2023-07-09T04:59:55;21.40;82.20
81202;DHT22;71068;47.662;-2.750;2023-07-09T05:02:23;21.40;81.80
81202;DHT22;71068;47.662;-2.750;2023-07-09T05:04:50;21.40;81.80
81202;DHT22;71068;47.662;-2.750;2023-07-09T05:07:17;21.40;82.20
81202;DHT22;71068;47.662;-2.750;2023-07-09T05:09:43;21.30;82.50
81202;DHT22;71068;47.662;-2.750;2023-07-09T05:12:10;21.40;82.30
81202;DHT22;71068;47.662;-2.750;2023-07-09T05:14:37;21.30;82.90
81202;DHT22;71068;47.662;-2.750;2023-07-09T05:17:03;21.50;82.20
81202;DHT22;71068;47.662;-2.750;2023-07-09T05:19:29;21.40;80.80
81202;DHT22;71068;47.662;-2.750;2023-07-09T05:21:56;21.30;80.40
81202;DHT22;71068;47.662;-2.750;2023-07-09T05:24:24;21.20;80.40
81202;DHT22;71068;47.662;-2.750;2023-07-09T05:26:54;21.30;80.40
81202;DHT22;71068;47.662;-2.750;2023-07-09T05:29:22;21.40;79.90
81202;DHT22;71068;47.662;-2.750;2023-07-09T05:31:49;21.40;79.70
81202;DHT22;71068;47.662;-2.750;2023-07-09T05:34:17;21.40;79.30
81202;DHT22;71068;47.662;-2.750;2023-07-09T05:36:47;21.40;78.80
81202;DHT22;71068;47.662;-2.750;2023-07-09T05:39:13;21.50;78.80
81202;DHT22;71068;47.662;-2.750;2023-07-09T05:41:39;21.20;78.90
81202;DHT22;71068;47.662;-2.750;2023-07-09T05:44:05;21.20;79.00
81202;DHT22;71068;47.662;-2.750;2023-07-09T05:46:34;21.00;78.90
81202;DHT22;71068;47.662;-2.750;2023-07-09T05:49:02;21.20;79.10
81202;DHT22;71068;47.662;-2.750;2023-07-09T05:51:31;21.20;78.80
81202;DHT22;71068;47.662;-2.750;2023-07-09T05:53:57;21.20;79.00
81202;DHT22;71068;47.662;-2.750;2023-07-09T05:56:25;21.00;79.30
81202;DHT22;71068;47.662;-2.750;2023-07-09T05:58:51;21.20;79.20
81202;DHT22;71068;47.662;-2.750;2023-07-09T06:01:18;21.10;79.80
81202;DHT22;71068;47.662;-2.750;2023-07-09T06:03:46;21.10;79.00
81202;DHT22;71068;47.662;-2.750;2023-07-09T06:06:14;21.20;78.70
81202;DHT22;71068;47.662;-2.750;2023-07-09T06:08:40;21.40;78.50
81202;DHT22;71068;47.662;-2.750;2023-07-09T06:11:07;21.40;78.50
81202;DHT22;71068;47.662;-2.750;2023-07-09T06:13:33;21.60;78.20
81202;DHT22;71068;47.662;-2.750;2023-07-09T06:16:01;21.70;77.80
81202;DHT22;71068;47.662;-2.750;2023-07-09T06:18:27;21.60;78.60
81202;DHT22;71068;47.662;-2.750;2023-07-09T06:20:58;21.40;78.80
81202;DHT22;71068;47.662;-2.750;2023-07-09T06:23:27;21.60;77.60
81202;DHT22;71068;47.662;-2.750;2023-07-09T06:25:54;21.60;77.50
81202;DHT22;71068;47.662;-2.750;2023-07-09T06:28:23;21.30;78.00
81202;DHT22;71068;47.662;-2.750;2023-07-09T06:30:51;21.30;78.00
81202;DHT22;71068;47.662;-2.750;2023-07-09T06:33:19;21.40;78.00
81202;DHT22;71068;47.662;-2.750;2023-07-09T06:35:59;21.30;77.90
81202;DHT22;71068;47.662;-2.750;2023-07-09T06:38:26;21.50;77.90
81202;DHT22;71068;47.662;-2.750;2023-07-09T06:40:56;21.40;78.90
81202;DHT22;71068;47.662;-2.750;2023-07-09T06:43:24;21.30;78.90
81202;DHT22;71068;47.662;-2.750;2023-07-09T06:45:54;21.50;78.00
81202;DHT22;71068;47.662;-2.750;2023-07-09T06:48:25;21.60;77.50
81202;DHT22;71068;47.662;-2.750;2023-07-09T06:50:57;21.50;76.60
81202;DHT22;71068;47.662;-2.750;2023-07-09T06:53:25;21.50;76.60
81202;DHT22;71068;47.662;-2.750;2023-07-09T06:55:54;21.70;77.10
81202;DHT22;71068;47.662;-2.750;2023-07-09T06:58:27;21.70;76.60
81202;DHT22;71068;47.662;-2.750;2023-07-09T07:01:04;21.80;76.20
81202;DHT22;71068;47.662;-2.750;2023-07-09T07:03:33;21.90;76.30
81202;DHT22;71068;47.662;-2.750;2023-07-09T07:06:02;21.80;75.90
81202;DHT22;71068;47.662;-2.750;2023-07-09T07:08:28;22.00;76.10
81202;DHT22;71068;47.662;-2.750;2023-07-09T07:11:00;22.10;75.50
81202;DHT22;71068;47.662;-2.750;2023-07-09T07:13:35;22.10;74.90
81202;DHT22;71068;47.662;-2.750;2023-07-09T07:16:05;22.10;75.30
81202;DHT22;71068;47.662;-2.750;2023-07-09T07:18:33;22.10;75.00
81202;DHT22;71068;47.662;-2.750;2023-07-09T07:20:59;22.20;75.20
81202;DHT22;71068;47.662;-2.750;2023-07-09T07:23:26;22.40;74.30
81202;DHT22;71068;47.662;-2.750;2023-07-09T07:25:53;22.20;74.50
81202;DHT22;71068;47.662;-2.750;2023-07-09T07:28:22;22.30;74.70
81202;DHT22;71068;47.662;-2.750;2023-07-09T07:31:01;22.40;74.80
81202;DHT22;71068;47.662;-2.750;2023-07-09T07:33:30;22.50;74.00
81202;DHT22;71068;47.662;-2.750;2023-07-09T07:35:56;22.50;74.70
81202;DHT22;71068;47.662;-2.750;2023-07-09T07:38:30;22.60;74.40
81202;DHT22;71068;47.662;-2.750;2023-07-09T07:41:01;22.60;74.00
81202;DHT22;71068;47.662;-2.750;2023-07-09T07:43:28;22.50;74.90
81202;DHT22;71068;47.662;-2.750;2023-07-09T07:45:54;22.60;74.60
81202;DHT22;71068;47.662;-2.750;2023-07-09T07:48:20;22.70;74.80
81202;DHT22;71068;47.662;-2.750;2023-07-09T07:50:46;22.70;74.00
81202;DHT22;71068;47.662;-2.750;2023-07-09T07:53:14;22.70;74.20
81202;DHT22;71068;47.662;-2.750;2023-07-09T07:55:42;22.70;73.90
81202;DHT22;71068;47.662;-2.750;2023-07-09T07:58:12;22.50;74.90
81202;DHT22;71068;47.662;-2.750;2023-07-09T08:00:40;22.50;74.80
81202;DHT22;71068;47.662;-2.750;2023-07-09T08:03:06;22.60;74.90
81202;DHT22;71068;47.662;-2.750;2023-07-09T08:05:32;22.60;74.80
81202;DHT22;71068;47.662;-2.750;2023-07-09T08:07:59;22.60;74.30
81202;DHT22;71068;47.662;-2.750;2023-07-09T08:10:25;22.50;74.60
81202;DHT22;71068;47.662;-2.750;2023-07-09T08:12:52;22.60;74.90
81202;DHT22;71068;47.662;-2.750;2023-07-09T08:15:22;22.50;74.60
81202;DHT22;71068;47.662;-2.750;2023-07-09T08:17:51;22.30;74.90
81202;DHT22;71068;47.662;-2.750;2023-07-09T08:20:17;22.30;74.60
81202;DHT22;71068;47.662;-2.750;2023-07-09T08:22:45;22.20;74.90
81202;DHT22;71068;47.662;-2.750;2023-07-09T08:25:11;22.20;74.20
81202;DHT22;71068;47.662;-2.750;2023-07-09T08:27:37;21.90;75.00
81202;DHT22;71068;47.662;-2.750;2023-07-09T08:30:05;21.60;75.50
81202;DHT22;71068;47.662;-2.750;2023-07-09T08:32:33;21.90;74.50
81202;DHT22;71068;47.662;-2.750;2023-07-09T08:34:59;22.10;74.60
81202;DHT22;71068;47.662;-2.750;2023-07-09T08:37:25;21.90;74.10
81202;DHT22;71068;47.662;-2.750;2023-07-09T08:39:51;22.00;74.60
81202;DHT22;71068;47.662;-2.750;2023-07-09T08:42:44;22.10;74.70
81202;DHT22;71068;47.662;-2.750;2023-07-09T08:48:05;22.30;74.20
81202;DHT22;71068;47.662;-2.750;2023-07-09T08:50:40;22.30;74.30
81202;DHT22;71068;47.662;-2.750;2023-07-09T08:53:25;22.20;72.90
81202;DHT22;71068;47.662;-2.750;2023-07-09T08:56:02;22.10;74.00
81202;DHT22;71068;47.662;-2.750;2023-07-09T08:58:31;22.10;73.40
81202;DHT22;71068;47.662;-2.750;2023-07-09T09:01:28;22.70;73.30
81202;DHT22;71068;47.662;-2.750;2023-07-09T09:03:59;22.90;72.80
81202;DHT22;71068;47.662;-2.750;2023-07-09T09:06:30;22.70;72.70
81202;DHT22;71068;47.662;-2.750;2023-07-09T09:12:08;22.70;72.30
81202;DHT22;71068;47.662;-2.750;2023-07-09T09:14:58;22.90;71.60
81202;DHT22;71068;47.662;-2.750;2023-07-09T09:17:27;23.10;71.00
81202;DHT22;71068;47.662;-2.750;2023-07-09T09:20:42;23.20;70.50
81202;DHT22;71068;47.662;-2.750;2023-07-09T09:25:38;23.60;69.40
81202;DHT22;71068;47.662;-2.750;2023-07-09T09:28:08;23.60;68.20
81202;DHT22;71068;47.662;-2.750;2023-07-09T09:30:34;23.30;68.50
81202;DHT22;71068;47.662;-2.750;2023-07-09T09:33:02;23.40;69.00
81202;DHT22;71068;47.662;-2.750;2023-07-09T09:35:37;23.50;68.80
81202;DHT22;71068;47.662;-2.750;2023-07-09T09:38:12;23.50;68.50
81202;DHT22;71068;47.662;-2.750;2023-07-09T09:40:44;23.60;69.00
81202;DHT22;71068;47.662;-2.750;2023-07-09T09:43:16;23.60;69.40
81202;DHT22;71068;47.662;-2.750;2023-07-09T09:45:47;23.00;70.50
81202;DHT22;71068;47.662;-2.750;2023-07-09T09:48:29;23.00;71.30
81202;DHT22;71068;47.662;-2.750;2023-07-09T09:51:05;22.70;72.50
81202;DHT22;71068;47.662;-2.750;2023-07-09T09:53:47;23.10;70.00
81202;DHT22;71068;47.662;-2.750;2023-07-09T09:56:41;23.20;70.40
81202;DHT22;71068;47.662;-2.750;2023-07-09T09:59:19;22.40;73.00
81202;DHT22;71068;47.662;-2.750;2023-07-09T10:01:57;22.60;72.90
81202;DHT22;71068;47.662;-2.750;2023-07-09T10:04:28;23.20;70.20
81202;DHT22;71068;47.662;-2.750;2023-07-09T10:07:03;22.90;70.50
81202;DHT22;71068;47.662;-2.750;2023-07-09T10:09:49;23.30;69.70
81202;DHT22;71068;47.662;-2.750;2023-07-09T10:18:00;24.20;65.60
81202;DHT22;71068;47.662;-2.750;2023-07-09T10:20:37;24.00;66.20
81202;DHT22;71068;47.662;-2.750;2023-07-09T10:26:13;24.10;65.50
81202;DHT22;71068;47.662;-2.750;2023-07-09T10:34:57;24.50;64.10
81202;DHT22;71068;47.662;-2.750;2023-07-09T10:37:39;24.20;63.80
81202;DHT22;71068;47.662;-2.750;2023-07-09T10:40:10;24.30;62.30
81202;DHT22;71068;47.662;-2.750;2023-07-09T10:42:46;24.30;62.20
81202;DHT22;71068;47.662;-2.750;2023-07-09T10:45:22;24.30;62.60
81202;DHT22;71068;47.662;-2.750;2023-07-09T10:48:06;24.60;62.20
81202;DHT22;71068;47.662;-2.750;2023-07-09T10:50:52;25.00;61.80
81202;DHT22;71068;47.662;-2.750;2023-07-09T10:53:36;24.80;63.50
81202;DHT22;71068;47.662;-2.750;2023-07-09T10:56:14;24.50;63.20
81202;DHT22;71068;47.662;-2.750;2023-07-09T10:59:01;24.70;62.20
81202;DHT22;71068;47.662;-2.750;2023-07-09T11:01:39;25.10;61.60
81202;DHT22;71068;47.662;-2.750;2023-07-09T11:04:20;25.10;61.90
81202;DHT22;71068;47.662;-2.750;2023-07-09T11:06:55;25.10;62.10
81202;DHT22;71068;47.662;-2.750;2023-07-09T11:09:27;25.50;61.10
81202;DHT22;71068;47.662;-2.750;2023-07-09T11:12:02;25.10;61.00
81202;DHT22;71068;47.662;-2.750;2023-07-09T11:17:20;25.20;61.00
81202;DHT22;71068;47.662;-2.750;2023-07-09T11:19:55;25.00;61.80
81202;DHT22;71068;47.662;-2.750;2023-07-09T11:22:35;25.10;61.50
81202;DHT22;71068;47.662;-2.750;2023-07-09T11:27:46;24.80;62.50
81202;DHT22;71068;47.662;-2.750;2023-07-09T11:30:20;24.70;63.10
81202;DHT22;71068;47.662;-2.750;2023-07-09T11:33:15;24.60;64.50
81202;DHT22;71068;47.662;-2.750;2023-07-09T11:35:48;24.30;64.90
81202;DHT22;71068;47.662;-2.750;2023-07-09T11:38:21;24.40;65.20
81202;DHT22;71068;47.662;-2.750;2023-07-09T11:40:54;24.40;65.10
81202;DHT22;71068;47.662;-2.750;2023-07-09T11:43:32;24.00;66.90
81202;DHT22;71068;47.662;-2.750;2023-07-09T11:46:20;24.30;64.80
81202;DHT22;71068;47.662;-2.750;2023-07-09T11:48:50;24.20;65.80
81202;DHT22;71068;47.662;-2.750;2023-07-09T11:51:26;24.30;65.70
81202;DHT22;71068;47.662;-2.750;2023-07-09T11:54:04;24.40;65.30
81202;DHT22;71068;47.662;-2.750;2023-07-09T11:56:32;24.30;65.70
81202;DHT22;71068;47.662;-2.750;2023-07-09T11:58:58;24.50;65.80
81202;DHT22;71068;47.662;-2.750;2023-07-09T12:01:33;24.80;64.90
81202;DHT22;71068;47.662;-2.750;2023-07-09T12:04:07;24.50;64.70
81202;DHT22;71068;47.662;-2.750;2023-07-09T12:06:40;24.60;62.40
81202;DHT22;71068;47.662;-2.750;2023-07-09T12:09:14;25.10;61.50
81202;DHT22;71068;47.662;-2.750;2023-07-09T12:11:45;25.40;60.70
81202;DHT22;71068;47.662;-2.750;2023-07-09T12:14:19;25.70;59.50
81202;DHT22;71068;47.662;-2.750;2023-07-09T12:16:51;25.80;59.30
81202;DHT22;71068;47.662;-2.750;2023-07-09T12:19:24;25.80;59.50
81202;DHT22;71068;47.662;-2.750;2023-07-09T12:21:55;25.80;58.40
81202;DHT22;71068;47.662;-2.750;2023-07-09T12:24:27;25.10;60.00
81202;DHT22;71068;47.662;-2.750;2023-07-09T12:26:56;24.60;60.40
81202;DHT22;71068;47.662;-2.750;2023-07-09T12:29:34;24.60;61.10
81202;DHT22;71068;47.662;-2.750;2023-07-09T12:32:10;24.90;60.20
81202;DHT22;71068;47.662;-2.750;2023-07-09T12:34:40;25.10;59.30
81202;DHT22;71068;47.662;-2.750;2023-07-09T12:37:15;25.70;58.30
81202;DHT22;71068;47.662;-2.750;2023-07-09T12:39:42;25.90;57.80
81202;DHT22;71068;47.662;-2.750;2023-07-09T12:42:17;25.80;57.90
81202;DHT22;71068;47.662;-2.750;2023-07-09T12:44:47;25.90;57.50
81202;DHT22;71068;47.662;-2.750;2023-07-09T12:47:16;26.50;56.90
81202;DHT22;71068;47.662;-2.750;2023-07-09T12:49:44;26.40;55.90
81202;DHT22;71068;47.662;-2.750;2023-07-09T12:52:22;26.40;55.60
81202;DHT22;71068;47.662;-2.750;2023-07-09T12:55:02;26.30;56.80
81202;DHT22;71068;47.662;-2.750;2023-07-09T12:57:31;26.60;55.90
81202;DHT22;71068;47.662;-2.750;2023-07-09T12:59:58;26.40;56.20
81202;DHT22;71068;47.662;-2.750;2023-07-09T13:02:28;26.20;55.90
81202;DHT22;71068;47.662;-2.750;2023-07-09T13:05:13;26.40;55.50
81202;DHT22;71068;47.662;-2.750;2023-07-09T13:07:47;26.80;54.60
81202;DHT22;71068;47.662;-2.750;2023-07-09T13:10:18;26.10;56.10
81202;DHT22;71068;47.662;-2.750;2023-07-09T13:12:51;26.90;54.10
81202;DHT22;71068;47.662;-2.750;2023-07-09T13:18:06;26.70;54.30
81202;DHT22;71068;47.662;-2.750;2023-07-09T13:20:38;25.80;56.60
81202;DHT22;71068;47.662;-2.750;2023-07-09T13:23:25;25.90;56.10
81202;DHT22;71068;47.662;-2.750;2023-07-09T13:25:55;26.30;54.60
81202;DHT22;71068;47.662;-2.750;2023-07-09T13:28:31;25.60;56.80
81202;DHT22;71068;47.662;-2.750;2023-07-09T13:33:44;26.10;55.80
81202;DHT22;71068;47.662;-2.750;2023-07-09T13:36:18;25.90;57.20
81202;DHT22;71068;47.662;-2.750;2023-07-09T13:38:49;26.40;56.00
81202;DHT22;71068;47.662;-2.750;2023-07-09T13:41:18;26.70;54.10
81202;DHT22;71068;47.662;-2.750;2023-07-09T13:43:48;27.00;54.20
81202;DHT22;71068;47.662;-2.750;2023-07-09T13:46:15;26.40;55.20
81202;DHT22;71068;47.662;-2.750;2023-07-09T13:48:43;26.80;55.30
81202;DHT22;71068;47.662;-2.750;2023-07-09T13:51:24;27.10;53.20
81202;DHT22;71068;47.662;-2.750;2023-07-09T13:53:54;27.50;52.80
81202;DHT22;71068;47.662;-2.750;2023-07-09T13:56:22;27.20;53.50
81202;DHT22;71068;47.662;-2.750;2023-07-09T13:58:53;26.40;55.70
81202;DHT22;71068;47.662;-2.750;2023-07-09T14:01:22;26.80;54.80
81202;DHT22;71068;47.662;-2.750;2023-07-09T14:03:49;26.40;55.70
81202;DHT22;71068;47.662;-2.750;2023-07-09T14:06:17;26.60;55.10
81202;DHT22;71068;47.662;-2.750;2023-07-09T14:08:44;26.20;56.60
81202;DHT22;71068;47.662;-2.750;2023-07-09T14:11:16;26.80;55.50
81202;DHT22;71068;47.662;-2.750;2023-07-09T14:13:43;26.20;57.50
81202;DHT22;71068;47.662;-2.750;2023-07-09T14:16:11;25.70;58.30
81202;DHT22;71068;47.662;-2.750;2023-07-09T14:18:39;24.90;61.20
81202;DHT22;71068;47.662;-2.750;2023-07-09T14:21:14;24.60;62.90
81202;DHT22;71068;47.662;-2.750;2023-07-09T14:23:43;24.40;62.50
81202;DHT22;71068;47.662;-2.750;2023-07-09T14:26:11;24.60;63.20
81202;DHT22;71068;47.662;-2.750;2023-07-09T14:28:37;25.20;62.10
81202;DHT22;71068;47.662;-2.750;2023-07-09T14:31:30;24.90;63.10
81202;DHT22;71068;47.662;-2.750;2023-07-09T14:34:22;25.60;60.40
81202;DHT22;71068;47.662;-2.750;2023-07-09T14:36:54;25.40;58.80
81202;DHT22;71068;47.662;-2.750;2023-07-09T14:39:21;25.50;57.90
81202;DHT22;71068;47.662;-2.750;2023-07-09T14:41:50;24.90;59.90
81202;DHT22;71068;47.662;-2.750;2023-07-09T14:44:29;25.50;57.60
81202;DHT22;71068;47.662;-2.750;2023-07-09T14:46:58;25.00;58.30
81202;DHT22;71068;47.662;-2.750;2023-07-09T14:49:27;25.70;57.20
81202;DHT22;71068;47.662;-2.750;2023-07-09T14:51:55;26.30;55.30
81202;DHT22;71068;47.662;-2.750;2023-07-09T14:54:27;26.80;53.10
81202;DHT22;71068;47.662;-2.750;2023-07-09T14:56:56;27.40;50.60
81202;DHT22;71068;47.662;-2.750;2023-07-09T14:59:23;27.70;49.20
81202;DHT22;71068;47.662;-2.750;2023-07-09T15:01:50;27.90;49.20
81202;DHT22;71068;47.662;-2.750;2023-07-09T15:06:50;26.20;53.30
81202;DHT22;71068;47.662;-2.750;2023-07-09T15:09:19;26.70;51.70
81202;DHT22;71068;47.662;-2.750;2023-07-09T15:11:46;27.50;50.50
81202;DHT22;71068;47.662;-2.750;2023-07-09T15:14:16;27.30;50.60
81202;DHT22;71068;47.662;-2.750;2023-07-09T15:16:43;27.60;50.40
81202;DHT22;71068;47.662;-2.750;2023-07-09T15:19:16;27.80;50.60
81202;DHT22;71068;47.662;-2.750;2023-07-09T15:21:48;27.80;50.10
81202;DHT22;71068;47.662;-2.750;2023-07-09T15:24:46;27.60;51.10
81202;DHT22;71068;47.662;-2.750;2023-07-09T15:27:15;26.50;54.00
81202;DHT22;71068;47.662;-2.750;2023-07-09T15:29:41;25.20;57.70
81202;DHT22;71068;47.662;-2.750;2023-07-09T15:32:09;24.90;57.70
81202;DHT22;71068;47.662;-2.750;2023-07-09T15:34:44;24.60;59.00
81202;DHT22;71068;47.662;-2.750;2023-07-09T15:37:15;24.90;58.50
81202;DHT22;71068;47.662;-2.750;2023-07-09T15:39:42;25.40;55.50
81202;DHT22;71068;47.662;-2.750;2023-07-09T15:42:13;25.30;56.70
81202;DHT22;71068;47.662;-2.750;2023-07-09T15:44:41;25.30;56.10
81202;DHT22;71068;47.662;-2.750;2023-07-09T15:47:18;25.40;55.90
81202;DHT22;71068;47.662;-2.750;2023-07-09T15:49:48;25.60;55.40
81202;DHT22;71068;47.662;-2.750;2023-07-09T15:52:16;25.50;55.90
81202;DHT22;71068;47.662;-2.750;2023-07-09T15:54:49;26.10;54.20
81202;DHT22;71068;47.662;-2.750;2023-07-09T15:57:22;26.10;54.40
81202;DHT22;71068;47.662;-2.750;2023-07-09T15:59:48;25.70;56.10
81202;DHT22;71068;47.662;-2.750;2023-07-09T16:02:21;25.10;57.30
81202;DHT22;71068;47.662;-2.750;2023-07-09T16:04:47;25.00;57.80
81202;DHT22;71068;47.662;-2.750;2023-07-09T16:07:15;25.20;56.80
81202;DHT22;71068;47.662;-2.750;2023-07-09T16:09:41;25.10;57.40
81202;DHT22;71068;47.662;-2.750;2023-07-09T16:12:15;25.20;57.00
81202;DHT22;71068;47.662;-2.750;2023-07-09T16:14:41;25.10;57.60
81202;DHT22;71068;47.662;-2.750;2023-07-09T16:17:10;24.50;58.80
81202;DHT22;71068;47.662;-2.750;2023-07-09T16:19:36;24.30;58.70